Time;durP1;ratioP1;P1;durP2;ratioP2;P2;SDS_P1;SDS_P2;PMS_P1;PMS_P2;Temp;Humidity;BMP_temperature;BMP_pressure;BME280_temperature;BME280_humidity;BME280_pressure;Samples;Min_cycle;Max_cycle;Signal;HPM_P1;HPM_P2
2023/06/29 00:00:59;;;;;;;6.80;3.70;;;;;;;19.79;73.29;101142.75;5034475;28;20045;-62
2023/06/29 00:03:25;;;;;;;8.65;4.32;;;;;;;19.76;73.46;101144.59;5032364;28;20048;-62
2023/06/29 00:05:53;;;;;;;6.32;4.00;;;;;;;19.73;73.55;101142.97;5037610;28;20772;-62
2023/06/29 00:08:18;;;;;;;7.00;3.85;;;;;;;19.73;73.65;101149.97;5032619;28;20060;-62
2023/06/29 00:10:43;;;;;;;6.05;4.07;;;;;;;19.74;73.82;101151.69;5038261;28;20040;-62
2023/06/29 00:13:09;;;;;;;7.00;3.45;;;;;;;19.73;73.83;101147.34;5035322;28;20069;-62
2023/06/29 00:15:34;;;;;;;5.38;3.70;;;;;;;19.74;73.74;101149.06;5035560;28;20136;-62
2023/06/29 00:17:59;;;;;;;5.05;3.50;;;;;;;19.75;73.85;101141.13;5034106;28;20133;-62
2023/06/29 00:20:28;;;;;;;6.35;3.83;;;;;;;19.77;73.58;101135.84;5019343;28;20037;-62
2023/06/29 00:22:54;;;;;;;6.60;4.07;;;;;;;19.79;73.76;101142.75;5038069;28;21092;-62
2023/06/29 00:25:19;;;;;;;8.10;4.70;;;;;;;19.82;74.66;101140.00;5036344;28;20819;-62
2023/06/29 00:27:44;;;;;;;7.72;4.40;;;;;;;19.79;73.83;101134.88;5038799;28;20037;-62
2023/06/29 00:30:10;;;;;;;8.32;5.10;;;;;;;19.77;74.21;101133.22;5034383;28;20714;-62
2023/06/29 00:32:35;;;;;;;8.32;4.50;;;;;;;19.76;74.27;101139.38;5033612;28;20039;-62
2023/06/29 00:35:01;;;;;;;6.43;4.53;;;;;;;19.74;74.44;101139.41;5037169;28;20032;-62
2023/06/29 00:37:26;;;;;;;6.50;3.83;;;;;;;19.72;74.49;101140.38;5019470;28;20040;-61
2023/06/29 00:39:51;;;;;;;8.90;4.57;;;;;;;19.71;74.71;101141.31;5033381;28;20040;-62
2023/06/29 00:42:17;;;;;;;5.32;3.65;;;;;;;19.71;74.74;101138.69;5036433;28;20036;-62
2023/06/29 00:44:43;;;;;;;5.82;3.75;;;;;;;19.71;74.88;101136.91;5031717;28;20867;-62
2023/06/29 00:47:09;;;;;;;7.90;3.88;;;;;;;19.72;74.93;101143.88;5014543;28;20033;-62
2023/06/29 00:49:34;;;;;;;5.65;4.25;;;;;;;19.72;75.10;101136.00;5035816;28;20044;-62
2023/06/29 00:52:00;;;;;;;9.50;4.40;;;;;;;19.75;74.91;101135.03;5038583;28;20087;-62
2023/06/29 00:54:26;;;;;;;4.97;3.53;;;;;;;19.75;74.94;101125.38;5033324;28;20039;-62
2023/06/29 00:56:52;;;;;;;5.65;3.63;;;;;;;19.75;74.98;101133.25;5036012;28;20041;-62
2023/06/29 00:59:17;;;;;;;10.07;4.43;;;;;;;19.78;74.80;101130.50;5035184;28;20040;-62
2023/06/29 01:01:44;;;;;;;9.95;4.53;;;;;;;19.78;75.28;101129.66;5034784;28;20040;-62
2023/06/29 01:04:17;;;;;;;5.47;3.78;;;;;;;19.80;75.59;101131.31;5033738;28;20075;-62
2023/06/29 01:06:48;;;;;;;6.00;3.50;;;;;;;19.83;75.86;101125.13;5032545;28;20047;-62
2023/06/29 01:09:14;;;;;;;8.25;4.22;;;;;;;19.84;75.64;101126.81;5033934;28;20131;-62
2023/06/29 01:11:40;;;;;;;9.13;5.00;;;;;;;19.85;75.51;101123.28;5033107;28;20033;-62
2023/06/29 01:14:08;;;;;;;7.93;4.10;;;;;;;19.85;75.20;101118.91;5038606;28;20053;-62
2023/06/29 01:16:35;;;;;;;7.78;3.95;;;;;;;19.86;74.76;101120.59;5036001;28;20047;-62
2023/06/29 01:19:04;;;;;;;6.45;4.05;;;;;;;19.87;75.12;101121.44;5030313;28;20037;-63
2023/06/29 01:21:31;;;;;;;10.63;4.82;;;;;;;19.87;75.05;101118.81;5034585;28;20068;-62
2023/06/29 01:23:59;;;;;;;6.38;4.10;;;;;;;19.86;74.97;101119.75;5036062;28;20044;-62
2023/06/29 01:26:25;;;;;;;6.97;4.38;;;;;;;19.85;75.01;101115.41;5034028;28;20033;-63
2023/06/29 01:28:50;;;;;;;6.53;4.45;;;;;;;19.83;74.97;101110.22;5040847;28;20079;-62
2023/06/29 01:31:16;;;;;;;7.28;4.32;;;;;;;19.80;75.13;101105.09;5031972;28;20131;-62
2023/06/29 01:33:42;;;;;;;7.57;5.20;;;;;;;19.75;75.42;101100.91;5030134;28;20194;-62
2023/06/29 01:36:27;;;;;;;7.22;4.68;;;;;;;19.71;75.36;101108.06;5038952;28;20074;-62
2023/06/29 01:39:00;;;;;;;7.18;4.65;;;;;;;19.63;75.86;101111.00;5043446;28;20041;-62
2023/06/29 01:41:28;;;;;;;7.47;4.47;;;;;;;19.58;76.11;101112.09;5032726;28;20445;-62
2023/06/29 01:43:55;;;;;;;6.53;4.40;;;;;;;19.50;76.13;101101.91;5035136;28;20029;-62
2023/06/29 01:46:22;;;;;;;6.75;4.10;;;;;;;19.46;76.50;101109.97;5033829;28;20033;-62
2023/06/29 01:48:48;;;;;;;7.03;4.55;;;;;;;19.41;76.81;101101.44;5028452;28;20045;-64
2023/06/29 01:51:14;;;;;;;6.70;4.57;;;;;;;19.37;77.03;101105.06;5036888;28;20049;-62
2023/06/29 01:53:40;;;;;;;8.45;4.60;;;;;;;19.33;77.30;101104.34;5034869;28;20028;-62
2023/06/29 01:56:05;;;;;;;9.30;4.70;;;;;;;19.30;77.86;101103.59;5038969;28;20037;-62
2023/06/29 01:58:31;;;;;;;5.75;4.47;;;;;;;19.27;78.46;101099.34;5033141;28;20914;-64
2023/06/29 02:00:56;;;;;;;9.52;4.85;;;;;;;19.26;78.52;101105.50;5036771;28;20367;-63
2023/06/29 02:03:21;;;;;;;5.57;4.28;;;;;;;19.25;78.98;101105.56;5040699;28;20124;-62
2023/06/29 02:05:47;;;;;;;6.30;3.83;;;;;;;19.22;78.82;101109.16;5039514;28;20076;-62
2023/06/29 02:08:12;;;;;;;8.88;4.28;;;;;;;19.23;79.14;101103.00;5038540;28;20521;-62
2023/06/29 02:10:37;;;;;;;7.18;4.18;;;;;;;19.25;79.14;101105.56;5037515;28;20043;-62
2023/06/29 02:13:03;;;;;;;5.47;4.25;;;;;;;19.27;79.28;101103.72;5039029;28;20556;-62
2023/06/29 02:15:28;;;;;;;6.85;4.28;;;;;;;19.30;79.19;101106.22;5041974;28;20741;-62
2023/06/29 02:17:53;;;;;;;6.65;4.53;;;;;;;19.33;79.38;101098.25;5036974;28;20569;-62
2023/06/29 02:20:19;;;;;;;8.75;5.15;;;;;;;19.34;79.49;101095.56;5032981;28;20111;-62
2023/06/29 02:22:44;;;;;;;9.75;5.45;;;;;;;19.34;79.71;101095.56;5035634;28;20191;-62
2023/06/29 02:25:11;;;;;;;8.15;4.80;;;;;;;19.32;79.58;101091.31;5039420;28;20045;-62
2023/06/29 02:27:36;;;;;;;8.07;5.05;;;;;;;19.29;79.89;101078.31;5040947;28;20174;-62
2023/06/29 02:30:03;;;;;;;11.15;5.75;;;;;;;19.24;79.80;101067.16;5042176;28;20041;-62
2023/06/29 02:32:28;;;;;;;9.13;5.30;;;;;;;19.19;80.02;101076.97;5042488;28;20474;-62
2023/06/29 02:34:53;;;;;;;8.07;5.70;;;;;;;19.12;80.05;101071.09;5043858;28;20063;-62
2023/06/29 02:37:19;;;;;;;12.27;6.45;;;;;;;19.05;80.50;101064.41;5042853;28;20033;-62
2023/06/29 02:39:44;;;;;;;7.78;5.97;;;;;;;18.99;80.87;101065.50;5044051;28;20662;-62
2023/06/29 02:42:10;;;;;;;9.52;5.80;;;;;;;18.92;81.01;101074.50;5041731;28;20045;-62
2023/06/29 02:44:35;;;;;;;7.60;5.32;;;;;;;18.86;81.32;101082.56;5040047;28;20048;-62
2023/06/29 02:47:00;;;;;;;8.40;5.53;;;;;;;18.83;81.63;101074.78;5041340;28;20041;-62
2023/06/29 02:49:25;;;;;;;8.02;5.82;;;;;;;18.86;81.47;101079.09;5037099;28;20045;-62
2023/06/29 02:51:51;;;;;;;8.88;5.65;;;;;;;18.90;81.33;101075.47;5043575;28;20772;-62
2023/06/29 02:54:16;;;;;;;8.18;4.93;;;;;;;18.96;80.99;101065.59;5041239;28;20076;-62
2023/06/29 02:56:41;;;;;;;11.75;6.55;;;;;;;18.98;81.07;101066.41;5041484;28;20043;-62
2023/06/29 02:59:07;;;;;;;10.15;7.15;;;;;;;19.02;80.82;101061.91;5039647;28;20116;-62
2023/06/29 03:01:32;;;;;;;12.02;7.63;;;;;;;19.02;80.95;101057.53;5036613;28;20041;-62
2023/06/29 03:03:57;;;;;;;8.82;6.55;;;;;;;19.04;80.94;101046.97;5019538;28;20040;-62
2023/06/29 03:06:23;;;;;;;13.20;7.75;;;;;;;19.03;80.95;101050.47;5038712;28;20055;-62
2023/06/29 03:08:48;;;;;;;10.65;7.47;;;;;;;19.00;81.18;101053.22;5037579;28;20525;-62
2023/06/29 03:11:14;;;;;;;14.10;8.32;;;;;;;19.00;80.93;101050.59;5038180;28;20119;-62
2023/06/29 03:13:39;;;;;;;11.15;8.05;;;;;;;19.00;80.98;101048.84;5037191;28;20232;-62
2023/06/29 03:16:04;;;;;;;12.98;8.75;;;;;;;19.01;80.99;101054.94;5038500;28;20029;-62
2023/06/29 03:18:30;;;;;;;15.13;9.80;;;;;;;19.04;80.65;101055.69;5039340;28;20561;-62
2023/06/29 03:20:56;;;;;;;14.00;10.23;;;;;;;19.04;80.54;101058.31;5024563;28;20037;-62
2023/06/29 03:23:22;;;;;;;16.20;10.82;;;;;;;19.05;80.64;101053.91;5034359;28;20025;-62
2023/06/29 03:25:48;;;;;;;18.63;10.95;;;;;;;19.06;80.51;101050.38;5038683;28;20045;-62
2023/06/29 03:28:13;;;;;;;15.40;10.93;;;;;;;19.07;80.34;101055.56;5038378;28;20043;-62
2023/06/29 03:30:39;;;;;;;17.83;11.18;;;;;;;19.07;80.54;101050.31;5022681;28;20041;-63
2023/06/29 03:33:04;;;;;;;17.73;10.52;;;;;;;19.08;80.55;101048.56;5032195;28;20056;-62
2023/06/29 03:35:29;;;;;;;15.73;10.40;;;;;;;19.11;80.36;101050.22;5032731;28;20124;-62
2023/06/29 03:37:55;;;;;;;17.30;9.55;;;;;;;19.12;80.38;101051.94;5038830;28;20124;-62
2023/06/29 03:40:20;;;;;;;15.77;9.68;;;;;;;19.12;80.10;101042.28;5038667;28;20127;-62
2023/06/29 03:42:46;;;;;;;17.45;9.60;;;;;;;19.14;80.37;101045.72;5037461;28;20541;-62
2023/06/29 03:45:11;;;;;;;14.30;9.48;;;;;;;19.17;80.17;101047.34;5037697;28;20056;-62
2023/06/29 03:47:36;;;;;;;14.07;10.05;;;;;;;19.18;79.83;101039.41;5035825;28;20032;-62
2023/06/29 03:50:02;;;;;;;16.95;10.35;;;;;;;19.20;79.88;101034.97;5038022;28;20115;-62
2023/06/29 03:52:27;;;;;;;14.68;9.55;;;;;;;19.23;79.67;101032.25;5034799;28;20856;-62
2023/06/29 03:54:52;;;;;;;15.30;9.57;;;;;;;19.26;79.33;101036.50;5036478;28;20049;-62
2023/06/29 03:57:18;;;;;;;14.80;8.55;;;;;;;19.27;79.73;101038.19;5037246;28;20087;-62
2023/06/29 03:59:43;;;;;;;13.93;8.52;;;;;;;19.28;79.48;101039.91;5040254;28;20135;-62
2023/06/29 04:02:09;;;;;;;13.13;7.70;;;;;;;19.29;79.47;101034.63;5038644;28;20080;-61
2023/06/29 04:04:34;;;;;;;14.40;8.40;;;;;;;19.32;79.24;101038.88;5035815;28;20602;-62
2023/06/29 04:06:59;;;;;;;12.65;7.75;;;;;;;19.33;79.71;101036.19;5037202;28;20045;-62
2023/06/29 04:09:24;;;;;;;13.57;8.93;;;;;;;19.32;79.41;101031.03;5039657;28;20047;-62
2023/06/29 04:11:50;;;;;;;12.48;8.20;;;;;;;19.34;79.30;101039.66;5038728;28;20037;-62
2023/06/29 04:14:15;;;;;;;13.10;8.18;;;;;;;19.37;79.35;101037.78;5023597;28;20540;-62
2023/06/29 04:16:41;;;;;;;14.07;8.02;;;;;;;19.40;79.24;101029.78;5039700;28;20096;-62
2023/06/29 04:19:06;;;;;;;15.82;8.52;;;;;;;19.42;79.08;101027.09;5034767;28;20044;-62
2023/06/29 04:21:31;;;;;;;12.30;7.68;;;;;;;19.47;78.95;101028.59;5039135;28;20036;-62
2023/06/29 04:23:57;;;;;;;12.13;7.93;;;;;;;19.52;79.17;101025.81;5038007;28;20458;-62
2023/06/29 04:26:22;;;;;;;17.48;9.07;;;;;;;19.55;78.78;101023.06;5042078;28;20041;-62
2023/06/29 04:28:48;;;;;;;12.13;8.00;;;;;;;19.61;78.64;101022.81;5045521;28;20044;-62
2023/06/29 04:31:13;;;;;;;14.38;8.45;;;;;;;19.68;78.63;101015.56;5042370;28;20086;-62
2023/06/29 04:33:39;;;;;;;13.32;8.70;;;;;;;19.70;78.15;101017.19;5041728;28;20041;-62
2023/06/29 04:36:04;;;;;;;9.77;7.63;;;;;;;19.70;78.21;101011.94;5048385;28;20099;-62
2023/06/29 04:38:31;;;;;;;20.63;9.38;;;;;;;19.70;78.40;101004.06;5039929;28;20694;-62
2023/06/29 04:41:03;;;;;;;17.00;9.35;;;;;;;19.73;78.26;101003.94;5042593;28;20028;-62
2023/06/29 04:43:32;;;;;;;13.77;9.05;;;;;;;19.76;78.02;101003.81;5042072;28;20041;-62
2023/06/29 04:46:00;;;;;;;11.50;7.90;;;;;;;19.77;78.01;100999.44;5042582;28;20037;-62
2023/06/29 04:48:29;;;;;;;13.80;8.27;;;;;;;19.83;77.84;100996.59;5040965;28;20099;-63
2023/06/29 04:51:06;;;;;;;17.00;8.40;;;;;;;19.86;77.69;100999.91;5038268;28;20037;-62
2023/06/29 04:53:35;;;;;;;13.88;7.38;;;;;;;19.89;77.48;101005.03;5034294;28;20036;-62
2023/06/29 04:56:03;;;;;;;11.88;7.85;;;;;;;19.92;77.36;101006.66;5036192;28;20036;-62
2023/06/29 04:58:29;;;;;;;12.70;7.88;;;;;;;19.95;76.88;100996.03;5031722;28;20072;-62
2023/06/29 05:00:55;;;;;;;14.30;8.50;;;;;;;20.00;77.12;101000.19;5035158;28;20139;-62
2023/06/29 05:03:20;;;;;;;15.38;8.27;;;;;;;20.01;76.61;100995.75;5036333;28;20570;-62
2023/06/29 05:05:46;;;;;;;11.60;6.75;;;;;;;20.11;76.51;100989.22;5034122;28;20043;-62
2023/06/29 05:08:11;;;;;;;11.40;6.40;;;;;;;20.30;76.21;100997.13;5032645;28;20034;-62
2023/06/29 05:10:37;;;;;;;13.23;7.10;;;;;;;20.43;74.97;100990.38;5033424;28;20044;-62
2023/06/29 05:13:02;;;;;;;8.40;5.32;;;;;;;20.60;74.38;100988.69;5036638;28;20141;-62
2023/06/29 05:15:28;;;;;;;9.63;5.28;;;;;;;20.77;74.33;100995.84;5033073;28;20090;-61
2023/06/29 05:17:53;;;;;;;8.95;5.53;;;;;;;20.91;73.65;100985.53;5028309;28;20050;-61
2023/06/29 05:20:19;;;;;;;9.80;5.32;;;;;;;20.93;72.56;100986.31;5030937;28;20431;-62
2023/06/29 05:22:45;;;;;;;9.00;5.78;;;;;;;21.07;71.93;100976.00;5030579;28;20040;-62
2023/06/29 05:25:11;;;;;;;6.85;4.47;;;;;;;21.25;71.83;100975.09;5033553;28;20036;-61
2023/06/29 05:27:36;;;;;;;7.82;4.88;;;;;;;21.36;71.67;100974.56;5032234;28;20037;-62
2023/06/29 05:30:02;;;;;;;10.50;4.80;;;;;;;21.52;70.25;100967.59;5028915;28;20127;-62
2023/06/29 05:32:28;;;;;;;7.63;5.13;;;;;;;21.63;70.21;100967.97;5031070;28;20546;-61
2023/06/29 05:34:53;;;;;;;8.52;5.22;;;;;;;21.72;69.46;100954.34;5032125;28;20041;-62
2023/06/29 05:37:20;;;;;;;8.95;5.00;;;;;;;21.89;69.40;100963.13;5030034;28;20395;-62
2023/06/29 05:39:45;;;;;;;9.57;5.72;;;;;;;21.93;68.70;100955.03;5027476;28;20037;-63
2023/06/29 05:42:11;;;;;;;7.90;4.57;;;;;;;21.99;68.33;100948.56;5035518;28;20040;-62
2023/06/29 05:44:36;;;;;;;9.13;5.28;;;;;;;22.18;68.18;100952.78;5034678;28;20044;-62
2023/06/29 05:47:01;;;;;;;6.82;4.22;;;;;;;22.30;67.57;100951.28;5037159;28;20139;-62
2023/06/29 05:49:27;;;;;;;7.88;4.97;;;;;;;22.39;66.70;100942.06;5033811;28;20067;-62
2023/06/29 05:51:52;;;;;;;7.43;3.95;;;;;;;22.47;66.38;100945.16;5042016;28;20075;-63
2023/06/29 05:54:18;;;;;;;6.22;4.10;;;;;;;22.51;65.60;100929.06;5037035;28;20048;-62
2023/06/29 05:56:43;;;;;;;7.03;4.05;;;;;;;22.56;66.21;100947.28;5039130;28;20033;-62
2023/06/29 05:59:09;;;;;;;6.13;3.70;;;;;;;22.46;66.06;100946.91;5031907;28;20037;-62
2023/06/29 06:01:35;;;;;;;8.77;4.65;;;;;;;22.44;66.10;100947.94;5035349;28;20116;-62
2023/06/29 06:04:02;;;;;;;7.55;4.53;;;;;;;22.36;66.31;100949.16;5013910;28;20067;-62
2023/06/29 06:06:30;;;;;;;10.05;3.92;;;;;;;22.33;66.57;100948.47;5037481;28;20041;-62
2023/06/29 06:08:58;;;;;;;7.70;4.30;;;;;;;22.32;66.62;100952.06;5034216;28;20103;-62
2023/06/29 06:11:24;;;;;;;7.30;4.07;;;;;;;22.30;66.66;100954.75;5034396;28;20033;-62
2023/06/29 06:13:49;;;;;;;5.85;3.78;;;;;;;22.33;67.14;100959.88;5031139;28;20029;-62
2023/06/29 06:16:15;;;;;;;6.25;3.90;;;;;;;22.25;66.79;100950.69;5030846;28;20041;-61
2023/06/29 06:18:40;;;;;;;6.50;3.70;;;;;;;22.27;67.91;100967.25;5027826;28;20085;-62
2023/06/29 06:21:05;;;;;;;5.20;3.55;;;;;;;22.22;69.06;100974.53;5034764;28;20710;-62
2023/06/29 06:23:31;;;;;;;7.45;4.65;;;;;;;22.18;69.13;100980.88;5034465;28;20033;-61
2023/06/29 06:25:56;;;;;;;5.30;4.00;;;;;;;22.15;69.27;100978.41;5033952;28;20151;-62
2023/06/29 06:28:21;;;;;;;4.60;3.40;;;;;;;22.14;69.41;100977.59;5032552;28;20045;-61
2023/06/29 06:30:48;;;;;;;5.97;3.70;;;;;;;22.17;69.45;100979.22;5030549;28;20041;-62
2023/06/29 06:33:14;;;;;;;7.15;3.17;;;;;;;22.26;68.89;100969.00;5016269;28;20578;-61
2023/06/29 06:35:41;;;;;;;6.53;3.50;;;;;;;22.41;67.60;100954.22;5032826;28;20033;-62
2023/06/29 06:38:06;;;;;;;6.53;3.95;;;;;;;22.58;67.66;100956.78;5033130;28;20111;-62
2023/06/29 06:40:32;;;;;;;7.57;4.30;;;;;;;22.77;66.62;100939.00;5030593;28;20068;-62
2023/06/29 06:42:57;;;;;;;5.60;3.70;;;;;;;23.02;65.09;100921.81;5031811;28;20050;-62
2023/06/29 06:45:22;;;;;;;6.15;3.20;;;;;;;23.28;64.21;100911.50;5030816;28;20073;-62
2023/06/29 06:47:48;;;;;;;8.15;3.60;;;;;;;23.45;63.76;100911.34;5029939;28;20177;-62
2023/06/29 06:50:13;;;;;;;5.75;3.13;;;;;;;23.60;63.08;100906.94;5036326;28;20422;-62
2023/06/29 06:52:39;;;;;;;6.70;3.50;;;;;;;23.74;62.20;100896.44;5032450;28;20514;-62
2023/06/29 06:55:05;;;;;;;7.90;3.33;;;;;;;23.90;62.24;100912.16;5034873;28;20033;-62
2023/06/29 06:57:31;;;;;;;8.32;3.30;;;;;;;23.95;61.71;100913.63;5033805;28;20040;-62
2023/06/29 06:59:56;;;;;;;5.00;3.10;;;;;;;24.05;61.78;100913.03;5031071;28;20106;-62
2023/06/29 07:02:21;;;;;;;8.90;3.30;;;;;;;24.10;60.83;100908.34;5031893;28;20437;-62
2023/06/29 07:04:47;;;;;;;5.07;3.38;;;;;;;24.10;60.00;100905.69;5032104;28;20040;-62
2023/06/29 07:07:12;;;;;;;7.82;3.88;;;;;;;24.17;59.82;100891.16;5036799;28;20375;-62
2023/06/29 07:09:38;;;;;;;8.32;3.47;;;;;;;24.22;60.62;100913.72;5035778;28;20113;-62
2023/06/29 07:12:04;;;;;;;5.38;3.08;;;;;;;24.05;59.84;100908.59;5019608;28;20781;-62
2023/06/29 07:14:31;;;;;;;8.43;3.78;;;;;;;23.86;61.22;100927.38;5038377;28;20037;-62
2023/06/29 07:16:57;;;;;;;7.88;4.32;;;;;;;23.85;61.63;100930.06;5044783;28;20040;-62
2023/06/29 07:19:22;;;;;;;7.57;3.83;;;;;;;23.79;61.35;100922.53;5036041;28;20064;-62
2023/06/29 07:21:48;;;;;;;6.97;3.83;;;;;;;23.76;62.65;100939.41;5039439;28;20037;-62
2023/06/29 07:24:13;;;;;;;8.30;3.92;;;;;;;23.74;62.62;100936.03;5038323;28;20041;-62
2023/06/29 07:26:39;;;;;;;9.07;3.85;;;;;;;23.75;63.24;100942.97;5034864;28;20806;-62
2023/06/29 07:29:05;;;;;;;7.43;3.55;;;;;;;23.76;63.09;100939.41;5038194;28;20526;-62
2023/06/29 07:31:31;;;;;;;5.90;3.45;;;;;;;23.68;63.42;100938.16;5017898;28;20033;-61
2023/06/29 07:33:56;;;;;;;11.82;3.78;;;;;;;23.64;63.28;100929.56;5017423;28;20082;-62
2023/06/29 07:36:23;;;;;;;9.73;3.75;;;;;;;23.64;63.59;100937.50;5033080;28;20033;-62
2023/06/29 07:38:49;;;;;;;7.25;3.13;;;;;;;23.70;64.17;100942.41;5034922;28;20124;-61
2023/06/29 07:41:16;;;;;;;7.90;3.60;;;;;;;23.77;63.33;100932.34;5035957;28;20122;-63
2023/06/29 07:43:46;;;;;;;7.65;3.60;;;;;;;23.88;62.74;100928.09;5035215;28;20516;-62
2023/06/29 07:46:12;;;;;;;6.15;3.70;;;;;;;24.02;62.21;100914.06;5035311;28;20589;-62
2023/06/29 07:48:37;;;;;;;7.10;3.20;;;;;;;24.15;61.34;100906.25;5029320;28;20037;-62
2023/06/29 07:51:03;;;;;;;7.65;3.53;;;;;;;24.13;61.12;100898.44;5039777;28;20041;-62
2023/06/29 07:53:29;;;;;;;7.88;3.10;;;;;;;24.12;60.84;100899.38;5036630;28;20123;-61
2023/06/29 07:55:55;;;;;;;6.72;3.30;;;;;;;24.10;61.44;100908.34;5037950;28;20784;-62
2023/06/29 07:58:20;;;;;;;6.50;3.60;;;;;;;23.96;61.84;100906.53;5033251;28;20175;-61
2023/06/29 08:00:46;;;;;;;4.70;3.45;;;;;;;23.92;61.23;100913.78;5032583;28;20390;-62
2023/06/29 08:03:11;;;;;;;6.28;2.90;;;;;;;23.87;61.68;100920.25;5035728;28;20076;-61
2023/06/29 08:05:36;;;;;;;7.43;3.42;;;;;;;23.83;61.83;100922.25;5034661;28;20041;-61
2023/06/29 08:08:02;;;;;;;8.48;3.25;;;;;;;23.85;62.74;100923.00;5034739;28;20041;-61
2023/06/29 08:10:27;;;;;;;5.93;3.25;;;;;;;23.84;62.15;100923.09;5031006;28;20048;-61
2023/06/29 08:12:53;;;;;;;6.57;3.70;;;;;;;23.81;61.77;100916.22;5033142;28;20050;-61
2023/06/29 08:15:18;;;;;;;7.57;3.28;;;;;;;23.83;62.22;100921.41;5035009;28;20072;-61
2023/06/29 08:17:43;;;;;;;6.18;3.15;;;;;;;23.94;62.02;100914.56;5030413;28;20037;-61
2023/06/29 08:20:12;;;;;;;6.80;3.65;;;;;;;24.13;62.03;100916.94;5032852;28;20040;-62
2023/06/29 08:22:45;;;;;;;5.10;2.80;;;;;;;24.29;61.68;100907.09;5033872;28;20056;-62
2023/06/29 08:25:10;;;;;;;4.47;2.92;;;;;;;24.38;59.48;100882.72;5033489;28;20036;-61
2023/06/29 08:27:36;;;;;;;7.15;3.63;;;;;;;24.59;59.56;100883.16;5033085;28;20037;-62
2023/06/29 08:30:02;;;;;;;5.43;3.42;;;;;;;24.78;59.24;100888.13;5034792;28;20043;-62
2023/06/29 08:32:27;;;;;;;6.07;2.97;;;;;;;24.88;58.81;100883.91;5027170;28;20037;-62
2023/06/29 08:34:53;;;;;;;8.18;3.25;;;;;;;24.85;57.89;100866.47;5036899;28;20045;-61
2023/06/29 08:37:19;;;;;;;7.70;3.10;;;;;;;24.92;59.18;100890.72;5029495;28;20033;-62
2023/06/29 08:39:45;;;;;;;3.53;2.67;;;;;;;24.87;59.81;100898.97;5019484;28;20767;-61
2023/06/29 08:42:10;;;;;;;5.65;3.13;;;;;;;24.76;59.76;100892.69;5037101;28;20053;-62
2023/06/29 08:44:35;;;;;;;7.07;3.17;;;;;;;24.69;58.97;100883.44;5027600;28;20060;-61
2023/06/29 08:47:02;;;;;;;9.18;2.90;;;;;;;24.55;59.25;100884.31;5033896;28;20037;-62
2023/06/29 08:49:27;;;;;;;6.95;2.85;;;;;;;24.61;59.34;100889.19;5031694;28;20610;-62
2023/06/29 08:51:58;;;;;;;9.75;3.13;;;;;;;24.52;59.26;100880.03;5036169;28;20033;-62
2023/06/29 08:54:26;;;;;;;9.73;3.33;;;;;;;24.62;59.13;100876.81;5033405;28;20705;-61
2023/06/29 08:56:51;;;;;;;10.48;3.85;;;;;;;24.63;59.72;100879.38;5034555;28;20041;-61
2023/06/29 08:59:18;;;;;;;5.32;2.88;;;;;;;24.63;58.82;100875.88;5036769;28;20828;-62
2023/06/29 09:01:44;;;;;;;7.15;3.25;;;;;;;24.83;58.97;100875.44;5032325;28;20055;-61
2023/06/29 09:04:09;;;;;;;6.80;2.60;;;;;;;25.01;59.32;100880.38;5033635;28;20041;-62
2023/06/29 09:06:35;;;;;;;7.05;3.70;;;;;;;25.23;58.02;100852.50;5029577;28;20055;-62
2023/06/29 09:09:00;;;;;;;9.35;3.90;;;;;;;25.21;56.95;100843.81;5027809;28;20041;-62
2023/06/29 09:11:25;;;;;;;7.00;3.40;;;;;;;25.48;56.71;100841.94;5033242;28;20042;-62
2023/06/29 09:13:53;;;;;;;8.68;3.03;;;;;;;25.69;54.98;100813.16;5017889;28;20122;-62
2023/06/29 09:16:18;;;;;;;7.63;3.30;;;;;;;25.74;54.86;100811.03;5034067;28;20564;-62
2023/06/29 09:18:48;;;;;;;8.63;3.22;;;;;;;25.83;54.07;100795.31;5030392;28;20044;-62
2023/06/29 09:21:16;;;;;;;8.25;3.00;;;;;;;26.32;53.46;100790.03;5030840;28;20260;-62
2023/06/29 09:23:42;;;;;;;8.63;3.22;;;;;;;26.67;51.62;100768.84;5033561;28;20037;-62
2023/06/29 09:26:08;;;;;;;8.43;2.83;;;;;;;26.74;50.69;100754.19;5034401;28;20037;-62
2023/06/29 09:28:35;;;;;;;5.22;2.50;;;;;;;27.04;50.68;100761.66;5032596;28;20049;-62
2023/06/29 09:31:06;;;;;;;6.38;3.05;;;;;;;27.05;50.78;100760.66;5034155;28;20185;-63
2023/06/29 09:33:31;;;;;;;7.68;2.90;;;;;;;27.33;49.97;100754.94;5034095;28;20036;-62
2023/06/29 09:36:04;;;;;;;4.75;2.90;;;;;;;26.99;50.85;100763.78;5015569;28;20044;-62
2023/06/29 09:38:31;;;;;;;6.13;3.05;;;;;;;27.02;50.81;100772.38;5014262;28;20104;-62
2023/06/29 09:40:57;;;;;;;4.82;2.63;;;;;;;27.03;50.74;100775.88;5024043;28;20040;-62
2023/06/29 09:43:28;;;;;;;6.20;2.63;;;;;;;26.86;50.20;100758.59;5031396;28;20036;-62
2023/06/29 09:46:02;;;;;;;7.65;2.63;;;;;;;26.83;50.22;100752.66;5030118;28;20120;-63
2023/06/29 09:48:28;;;;;;;4.03;2.50;;;;;;;26.64;51.15;100775.25;5030229;28;20029;-62
2023/06/29 09:50:54;;;;;;;5.28;2.80;;;;;;;26.58;50.63;100764.25;5033651;28;20095;-62
2023/06/29 09:53:31;;;;;;;10.00;2.67;;;;;;;26.34;50.59;100768.69;5034925;28;20040;-62
2023/06/29 09:56:00;;;;;;;10.57;3.08;;;;;;;26.07;51.96;100784.78;5033858;28;20044;-63
2023/06/29 09:58:29;;;;;;;7.53;3.20;;;;;;;25.92;52.48;100792.03;5034559;28;20929;-63
2023/06/29 10:00:58;;;;;;;4.70;2.75;;;;;;;26.07;52.97;100808.63;5030671;28;20114;-62
2023/06/29 10:03:25;;;;;;;4.97;2.58;;;;;;;25.84;51.69;100775.00;5034213;28;20402;-62
2023/06/29 10:05:54;;;;;;;5.32;2.75;;;;;;;25.70;52.51;100789.22;5030657;28;20068;-62
2023/06/29 10:08:22;;;;;;;5.07;2.30;;;;;;;25.67;51.98;100789.44;5030597;28;20033;-62
2023/06/29 10:10:53;;;;;;;5.40;2.67;;;;;;;25.56;51.92;100779.59;5031344;28;20514;-62
2023/06/29 10:13:19;;;;;;;7.93;3.08;;;;;;;25.70;52.57;100794.53;5031035;28;20036;-62
2023/06/29 10:15:46;;;;;;;5.90;2.83;;;;;;;25.82;52.50;100790.16;5027830;28;20112;-62
2023/06/29 10:18:26;;;;;;;6.45;2.83;;;;;;;26.06;51.77;100781.31;5034236;28;20180;-62
2023/06/29 10:20:52;;;;;;;9.18;2.95;;;;;;;26.38;51.16;100771.03;5018148;28;20048;-62
2023/06/29 10:23:20;;;;;;;5.72;2.33;;;;;;;26.62;50.02;100741.84;5018485;28;20084;-62
2023/06/29 10:25:48;;;;;;;11.13;3.65;;;;;;;26.89;49.12;100728.34;5040070;28;20037;-62
2023/06/29 10:28:16;;;;;;;5.40;2.80;;;;;;;26.91;48.67;100721.09;5037087;28;20481;-62
2023/06/29 10:30:49;;;;;;;8.50;3.03;;;;;;;26.88;49.18;100732.78;5037603;28;20055;-62
2023/06/29 10:33:23;;;;;;;5.75;2.42;;;;;;;27.31;48.47;100722.34;5035171;28;20402;-62
2023/06/29 10:36:01;;;;;;;5.68;2.60;;;;;;;27.86;48.90;100725.94;5034978;28;20095;-62
2023/06/29 10:38:35;;;;;;;5.90;2.88;;;;;;;27.93;46.54;100696.13;5033145;28;20086;-62
2023/06/29 10:41:04;;;;;;;3.80;2.33;;;;;;;28.27;46.57;100694.19;5025510;28;20067;-62
2023/06/29 10:43:58;;;;;;;3.90;2.40;;;;;;;28.34;46.42;100688.25;5041882;28;20078;-62
2023/06/29 10:46:45;;;;;;;6.53;2.72;;;;;;;28.33;47.00;100702.50;5037675;28;20037;-62
2023/06/29 10:49:28;;;;;;;4.68;2.40;;;;;;;28.13;45.98;100678.56;5039857;28;20103;-62
2023/06/29 10:52:04;;;;;;;6.35;2.10;;;;;;;27.95;46.69;100699.47;5035137;28;20033;-62
2023/06/29 10:54:30;;;;;;;5.10;2.42;;;;;;;28.00;47.74;100721.19;5041272;28;20032;-62
2023/06/29 10:57:06;;;;;;;5.88;2.58;;;;;;;27.94;48.22;100720.84;5039953;28;20132;-61
2023/06/29 10:59:34;;;;;;;4.65;2.75;;;;;;;27.72;47.91;100719.09;5037086;28;20075;-62
2023/06/29 11:01:59;;;;;;;7.18;2.75;;;;;;;27.54;48.59;100720.56;5039650;28;20099;-62
2023/06/29 11:04:25;;;;;;;7.35;2.65;;;;;;;27.53;48.01;100714.41;5039909;28;20032;-61
2023/06/29 11:06:51;;;;;;;6.25;2.92;;;;;;;27.44;47.56;100703.63;5040724;28;20051;-62
2023/06/29 11:09:16;;;;;;;6.13;3.10;;;;;;;27.26;46.90;100693.50;5036201;28;20017;-63
2023/06/29 11:11:44;;;;;;;5.55;3.33;;;;;;;27.11;47.09;100699.16;5041770;28;20047;-63
2023/06/29 11:14:16;;;;;;;6.20;3.17;;;;;;;27.03;47.98;100721.00;5040794;28;20049;-63
2023/06/29 11:16:42;;;;;;;4.63;3.05;;;;;;;26.86;48.32;100725.91;5041490;28;20049;-63
2023/06/29 11:19:07;;;;;;;8.57;2.90;;;;;;;26.81;48.67;100728.06;5033488;28;20037;-61
2023/06/29 11:21:33;;;;;;;6.82;3.60;;;;;;;26.73;48.88;100737.41;5041314;28;20403;-62